Airfield :
LOGIN :

Register | Disclaimer

   EN    FR    IT 

 










Legend :    VFR   Marginal VFR   IFR   Intensive IFR   Very Intensive IFR
Visi :
Ceiling :
>= 8 km
>= 3000ft
5 to 8 km
1000 to 3000 ft
1500m to 5 km
500 to 1000 ft
800 to 1500m
200 to 500 ft
< 800m
< 200 ft
Symbols :   Thunderstorms  Fog  Heavy snow  Heavy precipitations  Wind > 20 kt
SIGMETs :     Misc.  Thunderstorms  Icing  Turbulence  Mountain Waves  Volcanic Ashes






- Airport Elevation : 425 ft
- IATA code : DTM


EDLW - Dortmund

CURRENT METAR :
  • 131350Z 04004KT 350V100 CAVOK 31/18 Q1012

EXPIRED METARs :
  • 131320Z 03005KT 350V090 CAVOK 30/18 Q1012
  • 131250Z 34004KT 250V030 CAVOK 30/17 Q1012
  • 131220Z 01004KT 320V110 CAVOK 30/18 Q1012
  • 131150Z VRB03KT CAVOK 30/17 Q1012
  • 131120Z 01003KT 310V060 CAVOK 29/18 Q1012

TAF TAF EDLW
Valid from the 13 at 12:00 until the 14 at 12:00 UTC


131100Z 1312/1412 13004KT CAVOK
TEMPO 1314/1407 20015G25KT TSRA SCT040CB
PROB30
TEMPO 1316/1319 20020G40KT 1200 +TSRAGR
BECMG 1403/1406 19005KT
BECMG 1408/1411 25006KT



MET'MAP, your aeronautical weather chart ! - Copyright ORBIFLY December 2007 - Disclaimer

ORBIFLY MET'MAP TEAM :

Programming & Development : Alexandra Zaïnal
Concept & original design : Baudouin d'Aumeries
Assistance for programming : Marc-Olivier Méhu
Technical & hardware support : Manuel Goepfert

Contact : metmap@orbifly.com




SOURCES & CREDITS :

   NOAA